sensor_id;sensor_type;location;lat;lon;timestamp;P1;durP1;ratioP1;P2;durP2;ratioP2
22441;SDS011;11388;54.456;9.752;2023-05-07T12:23:24;2.20;;;1.20;;
22441;SDS011;11388;54.456;9.752;2023-05-07T12:25:50;1.50;;;1.20;;
22441;SDS011;11388;54.456;9.752;2023-05-07T12:28:17;2.05;;;1.00;;
22441;SDS011;11388;54.456;9.752;2023-05-07T12:30:44;3.17;;;1.00;;
22441;SDS011;11388;54.456;9.752;2023-05-07T12:33:11;1.30;;;0.90;;
22441;SDS011;11388;54.456;9.752;2023-05-07T12:35:37;2.25;;;1.00;;
22441;SDS011;11388;54.456;9.752;2023-05-07T12:38:11;4.05;;;1.88;;
22441;SDS011;11388;54.456;9.752;2023-05-07T12:40:47;4.53;;;1.77;;
22441;SDS011;11388;54.456;9.752;2023-05-07T12:43:25;3.83;;;1.90;;
22441;SDS011;11388;54.456;9.752;2023-05-07T12:45:54;3.17;;;1.73;;
22441;SDS011;11388;54.456;9.752;2023-05-07T12:48:22;5.18;;;2.10;;
22441;SDS011;11388;54.456;9.752;2023-05-07T12:50:52;4.85;;;2.30;;
22441;SDS011;11388;54.456;9.752;2023-05-07T12:53:20;4.32;;;1.98;;
22441;SDS011;11388;54.456;9.752;2023-05-07T12:55:49;4.10;;;1.92;;
22441;SDS011;11388;54.456;9.752;2023-05-07T12:58:17;4.72;;;2.30;;
22441;SDS011;11388;54.456;9.752;2023-05-07T13:00:44;5.20;;;2.33;;
22441;SDS011;11388;54.456;9.752;2023-05-07T13:03:12;4.78;;;2.50;;
22441;SDS011;11388;54.456;9.752;2023-05-07T13:05:51;3.78;;;2.20;;
22441;SDS011;11388;54.456;9.752;2023-05-07T13:08:31;3.75;;;2.08;;
22441;SDS011;11388;54.456;9.752;2023-05-07T13:11:04;3.95;;;2.17;;
22441;SDS011;11388;54.456;9.752;2023-05-07T13:13:39;3.65;;;2.20;;
22441;SDS011;11388;54.456;9.752;2023-05-07T13:16:07;4.13;;;2.15;;
22441;SDS011;11388;54.456;9.752;2023-05-07T13:18:34;4.82;;;2.30;;
22441;SDS011;11388;54.456;9.752;2023-05-07T13:21:01;3.90;;;2.70;;
22441;SDS011;11388;54.456;9.752;2023-05-07T13:23:34;5.50;;;2.45;;
22441;SDS011;11388;54.456;9.752;2023-05-07T13:26:00;6.53;;;2.40;;
22441;SDS011;11388;54.456;9.752;2023-05-07T13:28:33;5.93;;;2.20;;
22441;SDS011;11388;54.456;9.752;2023-05-07T13:31:04;4.72;;;2.10;;
22441;SDS011;11388;54.456;9.752;2023-05-07T13:33:30;4.63;;;2.25;;
22441;SDS011;11388;54.456;9.752;2023-05-07T13:35:57;4.20;;;2.28;;
22441;SDS011;11388;54.456;9.752;2023-05-07T13:38:25;5.63;;;2.05;;
22441;SDS011;11388;54.456;9.752;2023-05-07T13:40:51;5.35;;;2.05;;
22441;SDS011;11388;54.456;9.752;2023-05-07T13:45:58;5.05;;;2.50;;
22441;SDS011;11388;54.456;9.752;2023-05-07T13:48:28;6.13;;;2.40;;
22441;SDS011;11388;54.456;9.752;2023-05-07T13:50:54;5.07;;;2.20;;
22441;SDS011;11388;54.456;9.752;2023-05-07T13:53:31;6.25;;;2.80;;
22441;SDS011;11388;54.456;9.752;2023-05-07T13:55:58;7.35;;;2.53;;
22441;SDS011;11388;54.456;9.752;2023-05-07T13:58:24;5.50;;;2.55;;
22441;SDS011;11388;54.456;9.752;2023-05-07T14:00:52;4.57;;;2.53;;
22441;SDS011;11388;54.456;9.752;2023-05-07T14:03:27;7.20;;;2.92;;
22441;SDS011;11388;54.456;9.752;2023-05-07T14:05:53;6.90;;;3.08;;
22441;SDS011;11388;54.456;9.752;2023-05-07T14:08:19;6.90;;;3.55;;
22441;SDS011;11388;54.456;9.752;2023-05-07T14:10:45;7.57;;;3.45;;
22441;SDS011;11388;54.456;9.752;2023-05-07T14:13:11;5.75;;;3.05;;
22441;SDS011;11388;54.456;9.752;2023-05-07T14:18:12;8.43;;;2.85;;
22441;SDS011;11388;54.456;9.752;2023-05-07T14:20:40;7.03;;;2.67;;
22441;SDS011;11388;54.456;9.752;2023-05-07T14:23:11;6.90;;;3.03;;
22441;SDS011;11388;54.456;9.752;2023-05-07T14:25:37;6.50;;;2.60;;
22441;SDS011;11388;54.456;9.752;2023-05-07T14:28:02;5.53;;;2.80;;
22441;SDS011;11388;54.456;9.752;2023-05-07T14:30:28;5.43;;;2.75;;
22441;SDS011;11388;54.456;9.752;2023-05-07T14:32:54;6.43;;;2.72;;
22441;SDS011;11388;54.456;9.752;2023-05-07T14:35:20;9.05;;;3.08;;
22441;SDS011;11388;54.456;9.752;2023-05-07T14:37:46;6.00;;;2.88;;
22441;SDS011;11388;54.456;9.752;2023-05-07T14:40:12;5.82;;;2.72;;
22441;SDS011;11388;54.456;9.752;2023-05-07T14:42:38;6.40;;;2.90;;
22441;SDS011;11388;54.456;9.752;2023-05-07T14:45:06;6.05;;;3.00;;
22441;SDS011;11388;54.456;9.752;2023-05-07T14:47:32;8.32;;;3.08;;
22441;SDS011;11388;54.456;9.752;2023-05-07T14:50:00;6.75;;;3.30;;
22441;SDS011;11388;54.456;9.752;2023-05-07T14:52:26;6.28;;;3.20;;
22441;SDS011;11388;54.456;9.752;2023-05-07T14:54:52;5.60;;;3.20;;
22441;SDS011;11388;54.456;9.752;2023-05-07T15:00:45;8.60;;;3.38;;
22441;SDS011;11388;54.456;9.752;2023-05-07T15:03:18;6.20;;;3.03;;
22441;SDS011;11388;54.456;9.752;2023-05-07T15:05:47;5.20;;;3.05;;
22441;SDS011;11388;54.456;9.752;2023-05-07T15:08:24;4.70;;;2.90;;
22441;SDS011;11388;54.456;9.752;2023-05-07T15:11:10;5.43;;;2.90;;
22441;SDS011;11388;54.456;9.752;2023-05-07T15:13:52;6.63;;;2.90;;
22441;SDS011;11388;54.456;9.752;2023-05-07T15:16:35;5.65;;;3.10;;
22441;SDS011;11388;54.456;9.752;2023-05-07T15:19:22;5.28;;;2.80;;
22441;SDS011;11388;54.456;9.752;2023-05-07T15:21:59;7.25;;;2.83;;
22441;SDS011;11388;54.456;9.752;2023-05-07T15:24:45;5.18;;;2.50;;
22441;SDS011;11388;54.456;9.752;2023-05-07T15:27:13;6.30;;;3.13;;
22441;SDS011;11388;54.456;9.752;2023-05-07T15:29:46;5.93;;;2.83;;
22441;SDS011;11388;54.456;9.752;2023-05-07T15:32:37;5.53;;;2.85;;
22441;SDS011;11388;54.456;9.752;2023-05-07T15:35:05;7.03;;;3.05;;
22441;SDS011;11388;54.456;9.752;2023-05-07T15:37:35;7.03;;;2.88;;
22441;SDS011;11388;54.456;9.752;2023-05-07T15:40:20;5.43;;;3.20;;
22441;SDS011;11388;54.456;9.752;2023-05-07T15:42:51;5.47;;;3.03;;
22441;SDS011;11388;54.456;9.752;2023-05-07T15:45:25;6.60;;;2.90;;
22441;SDS011;11388;54.456;9.752;2023-05-07T15:48:13;6.30;;;2.67;;
22441;SDS011;11388;54.456;9.752;2023-05-07T15:51:04;5.22;;;2.70;;
22441;SDS011;11388;54.456;9.752;2023-05-07T15:53:38;6.60;;;2.72;;
22441;SDS011;11388;54.456;9.752;2023-05-07T15:56:19;5.78;;;2.58;;
22441;SDS011;11388;54.456;9.752;2023-05-07T15:58:51;6.35;;;2.47;;
22441;SDS011;11388;54.456;9.752;2023-05-07T16:01:38;5.32;;;2.80;;
22441;SDS011;11388;54.456;9.752;2023-05-07T16:04:16;5.85;;;2.50;;
22441;SDS011;11388;54.456;9.752;2023-05-07T16:06:58;4.55;;;2.63;;
22441;SDS011;11388;54.456;9.752;2023-05-07T16:09:32;5.45;;;2.60;;
22441;SDS011;11388;54.456;9.752;2023-05-07T16:11:58;7.25;;;2.63;;
22441;SDS011;11388;54.456;9.752;2023-05-07T16:14:30;4.88;;;2.20;;
22441;SDS011;11388;54.456;9.752;2023-05-07T16:17:00;4.25;;;2.20;;
22441;SDS011;11388;54.456;9.752;2023-05-07T16:19:52;4.57;;;2.15;;
22441;SDS011;11388;54.456;9.752;2023-05-07T16:22:28;6.03;;;2.42;;
22441;SDS011;11388;54.456;9.752;2023-05-07T16:25:00;5.10;;;2.38;;
22441;SDS011;11388;54.456;9.752;2023-05-07T16:27:31;4.65;;;2.60;;
22441;SDS011;11388;54.456;9.752;2023-05-07T16:30:05;5.93;;;2.25;;
22441;SDS011;11388;54.456;9.752;2023-05-07T16:32:31;6.47;;;2.65;;
22441;SDS011;11388;54.456;9.752;2023-05-07T16:35:03;4.40;;;2.17;;
22441;SDS011;11388;54.456;9.752;2023-05-07T16:37:29;4.50;;;2.40;;
22441;SDS011;11388;54.456;9.752;2023-05-07T16:39:54;5.82;;;2.55;;
22441;SDS011;11388;54.456;9.752;2023-05-07T16:42:20;5.50;;;2.40;;
22441;SDS011;11388;54.456;9.752;2023-05-07T16:44:46;7.40;;;2.70;;
22441;SDS011;11388;54.456;9.752;2023-05-07T16:47:12;6.13;;;2.50;;
22441;SDS011;11388;54.456;9.752;2023-05-07T16:49:37;5.88;;;2.47;;
22441;SDS011;11388;54.456;9.752;2023-05-07T16:52:03;5.15;;;2.08;;
22441;SDS011;11388;54.456;9.752;2023-05-07T16:54:29;6.15;;;2.17;;
22441;SDS011;11388;54.456;9.752;2023-05-07T16:56:55;6.57;;;2.80;;
22441;SDS011;11388;54.456;9.752;2023-05-07T16:59:21;5.10;;;2.58;;
22441;SDS011;11388;54.456;9.752;2023-05-07T17:01:47;4.55;;;2.28;;
22441;SDS011;11388;54.456;9.752;2023-05-07T17:04:13;2.90;;;2.10;;
22441;SDS011;11388;54.456;9.752;2023-05-07T17:06:38;5.63;;;2.20;;
22441;SDS011;11388;54.456;9.752;2023-05-07T17:09:04;5.18;;;2.28;;
22441;SDS011;11388;54.456;9.752;2023-05-07T17:11:30;5.60;;;2.13;;
22441;SDS011;11388;54.456;9.752;2023-05-07T17:13:57;5.25;;;2.20;;
22441;SDS011;11388;54.456;9.752;2023-05-07T17:16:23;4.60;;;2.30;;
22441;SDS011;11388;54.456;9.752;2023-05-07T17:18:49;4.05;;;2.20;;
22441;SDS011;11388;54.456;9.752;2023-05-07T17:21:15;6.40;;;2.50;;
22441;SDS011;11388;54.456;9.752;2023-05-07T17:23:41;6.15;;;2.40;;
22441;SDS011;11388;54.456;9.752;2023-05-07T17:26:10;4.07;;;2.30;;
22441;SDS011;11388;54.456;9.752;2023-05-07T17:28:37;4.45;;;2.30;;
22441;SDS011;11388;54.456;9.752;2023-05-07T17:31:03;4.93;;;2.40;;
22441;SDS011;11388;54.456;9.752;2023-05-07T17:33:29;5.85;;;2.30;;
22441;SDS011;11388;54.456;9.752;2023-05-07T17:38:27;4.55;;;2.30;;
22441;SDS011;11388;54.456;9.752;2023-05-07T17:40:53;5.80;;;2.28;;
22441;SDS011;11388;54.456;9.752;2023-05-07T17:43:19;4.38;;;2.40;;
22441;SDS011;11388;54.456;9.752;2023-05-07T17:45:47;4.55;;;2.33;;
22441;SDS011;11388;54.456;9.752;2023-05-07T17:48:13;4.40;;;2.47;;
22441;SDS011;11388;54.456;9.752;2023-05-07T17:50:39;6.50;;;2.63;;
22441;SDS011;11388;54.456;9.752;2023-05-07T17:53:05;5.90;;;2.20;;
22441;SDS011;11388;54.456;9.752;2023-05-07T17:55:31;5.53;;;2.70;;
22441;SDS011;11388;54.456;9.752;2023-05-07T17:57:58;5.70;;;2.22;;
22441;SDS011;11388;54.456;9.752;2023-05-07T18:00:24;4.82;;;2.58;;
22441;SDS011;11388;54.456;9.752;2023-05-07T18:02:50;4.53;;;2.40;;
22441;SDS011;11388;54.456;9.752;2023-05-07T18:05:16;5.57;;;2.63;;
22441;SDS011;11388;54.456;9.752;2023-05-07T18:07:42;7.13;;;2.53;;
22441;SDS011;11388;54.456;9.752;2023-05-07T18:10:07;6.15;;;3.08;;
22441;SDS011;11388;54.456;9.752;2023-05-07T18:12:33;5.40;;;2.70;;
22441;SDS011;11388;54.456;9.752;2023-05-07T18:14:59;5.75;;;2.55;;
22441;SDS011;11388;54.456;9.752;2023-05-07T18:17:25;6.20;;;2.97;;
22441;SDS011;11388;54.456;9.752;2023-05-07T18:19:51;6.70;;;2.70;;
22441;SDS011;11388;54.456;9.752;2023-05-07T18:22:17;5.75;;;2.88;;
22441;SDS011;11388;54.456;9.752;2023-05-07T18:24:49;4.47;;;2.67;;
22441;SDS011;11388;54.456;9.752;2023-05-07T18:27:16;4.68;;;2.53;;
22441;SDS011;11388;54.456;9.752;2023-05-07T18:29:42;5.20;;;2.70;;
22441;SDS011;11388;54.456;9.752;2023-05-07T18:32:08;6.00;;;2.80;;
22441;SDS011;11388;54.456;9.752;2023-05-07T18:34:33;5.43;;;2.70;;
22441;SDS011;11388;54.456;9.752;2023-05-07T18:36:59;6.50;;;3.03;;
22441;SDS011;11388;54.456;9.752;2023-05-07T18:39:25;6.28;;;2.72;;
22441;SDS011;11388;54.456;9.752;2023-05-07T18:41:50;5.45;;;2.70;;
22441;SDS011;11388;54.456;9.752;2023-05-07T18:44:17;6.90;;;2.83;;
22441;SDS011;11388;54.456;9.752;2023-05-07T18:46:42;5.63;;;2.60;;
22441;SDS011;11388;54.456;9.752;2023-05-07T18:49:09;5.85;;;2.70;;
22441;SDS011;11388;54.456;9.752;2023-05-07T18:51:35;5.63;;;2.85;;
22441;SDS011;11388;54.456;9.752;2023-05-07T18:54:00;6.05;;;2.50;;
22441;SDS011;11388;54.456;9.752;2023-05-07T18:56:26;7.53;;;2.60;;
22441;SDS011;11388;54.456;9.752;2023-05-07T18:58:52;8.95;;;3.17;;
22441;SDS011;11388;54.456;9.752;2023-05-07T19:01:17;4.75;;;2.60;;
22441;SDS011;11388;54.456;9.752;2023-05-07T19:03:43;4.65;;;2.50;;
22441;SDS011;11388;54.456;9.752;2023-05-07T19:06:09;6.15;;;2.80;;
22441;SDS011;11388;54.456;9.752;2023-05-07T19:08:35;7.13;;;2.92;;
22441;SDS011;11388;54.456;9.752;2023-05-07T19:11:01;5.13;;;2.70;;
22441;SDS011;11388;54.456;9.752;2023-05-07T19:13:27;6.53;;;3.00;;
22441;SDS011;11388;54.456;9.752;2023-05-07T19:15:53;5.18;;;2.60;;
22441;SDS011;11388;54.456;9.752;2023-05-07T19:18:19;5.10;;;2.70;;
22441;SDS011;11388;54.456;9.752;2023-05-07T19:20:45;6.55;;;2.70;;
22441;SDS011;11388;54.456;9.752;2023-05-07T19:23:12;7.57;;;2.97;;
22441;SDS011;11388;54.456;9.752;2023-05-07T19:25:38;5.15;;;2.70;;
22441;SDS011;11388;54.456;9.752;2023-05-07T19:28:04;5.60;;;2.70;;
22441;SDS011;11388;54.456;9.752;2023-05-07T19:30:29;5.20;;;2.92;;
22441;SDS011;11388;54.456;9.752;2023-05-07T19:32:58;5.68;;;2.53;;
22441;SDS011;11388;54.456;9.752;2023-05-07T19:35:25;4.97;;;2.50;;
22441;SDS011;11388;54.456;9.752;2023-05-07T19:37:51;5.75;;;2.85;;
22441;SDS011;11388;54.456;9.752;2023-05-07T19:40:16;6.28;;;3.13;;
22441;SDS011;11388;54.456;9.752;2023-05-07T19:42:42;5.03;;;2.40;;
22441;SDS011;11388;54.456;9.752;2023-05-07T19:45:08;6.55;;;2.78;;
22441;SDS011;11388;54.456;9.752;2023-05-07T19:47:34;5.55;;;2.70;;
22441;SDS011;11388;54.456;9.752;2023-05-07T19:50:00;5.88;;;2.70;;
22441;SDS011;11388;54.456;9.752;2023-05-07T19:52:25;6.15;;;2.60;;
22441;SDS011;11388;54.456;9.752;2023-05-07T19:54:51;4.78;;;2.60;;
22441;SDS011;11388;54.456;9.752;2023-05-07T19:57:17;8.38;;;2.60;;
22441;SDS011;11388;54.456;9.752;2023-05-07T19:59:43;5.82;;;2.60;;
22441;SDS011;11388;54.456;9.752;2023-05-07T20:02:10;6.47;;;2.42;;
22441;SDS011;11388;54.456;9.752;2023-05-07T20:04:36;5.90;;;2.45;;
22441;SDS011;11388;54.456;9.752;2023-05-07T20:07:02;5.38;;;2.55;;
22441;SDS011;11388;54.456;9.752;2023-05-07T20:09:28;6.80;;;2.42;;
22441;SDS011;11388;54.456;9.752;2023-05-07T20:11:54;5.65;;;2.95;;
22441;SDS011;11388;54.456;9.752;2023-05-07T20:14:21;5.90;;;2.45;;
22441;SDS011;11388;54.456;9.752;2023-05-07T20:16:46;6.00;;;2.47;;
22441;SDS011;11388;54.456;9.752;2023-05-07T20:19:12;5.72;;;2.50;;
22441;SDS011;11388;54.456;9.752;2023-05-07T20:21:38;3.95;;;2.60;;
22441;SDS011;11388;54.456;9.752;2023-05-07T20:24:06;6.97;;;2.67;;
22441;SDS011;11388;54.456;9.752;2023-05-07T20:26:32;5.97;;;2.70;;
22441;SDS011;11388;54.456;9.752;2023-05-07T20:28:57;5.82;;;2.65;;
22441;SDS011;11388;54.456;9.752;2023-05-07T20:31:23;4.63;;;2.45;;
22441;SDS011;11388;54.456;9.752;2023-05-07T20:33:49;6.28;;;2.42;;
22441;SDS011;11388;54.456;9.752;2023-05-07T20:36:15;3.88;;;2.55;;
22441;SDS011;11388;54.456;9.752;2023-05-07T20:38:40;5.55;;;2.40;;
22441;SDS011;11388;54.456;9.752;2023-05-07T20:41:06;5.50;;;2.55;;
22441;SDS011;11388;54.456;9.752;2023-05-07T20:43:36;5.15;;;2.63;;
22441;SDS011;11388;54.456;9.752;2023-05-07T20:46:02;7.78;;;2.90;;
22441;SDS011;11388;54.456;9.752;2023-05-07T20:48:29;4.80;;;2.50;;
22441;SDS011;11388;54.456;9.752;2023-05-07T20:50:55;6.47;;;2.83;;
22441;SDS011;11388;54.456;9.752;2023-05-07T20:53:22;6.45;;;2.72;;
22441;SDS011;11388;54.456;9.752;2023-05-07T20:55:48;5.75;;;2.72;;
22441;SDS011;11388;54.456;9.752;2023-05-07T20:58:14;4.85;;;2.67;;
22441;SDS011;11388;54.456;9.752;2023-05-07T21:00:40;6.25;;;2.80;;
22441;SDS011;11388;54.456;9.752;2023-05-07T21:03:06;4.07;;;2.60;;
22441;SDS011;11388;54.456;9.752;2023-05-07T21:05:31;5.05;;;2.80;;
22441;SDS011;11388;54.456;9.752;2023-05-07T21:07:57;4.55;;;2.50;;
22441;SDS011;11388;54.456;9.752;2023-05-07T21:10:23;6.85;;;2.85;;
22441;SDS011;11388;54.456;9.752;2023-05-07T21:12:49;8.43;;;2.95;;
22441;SDS011;11388;54.456;9.752;2023-05-07T21:15:14;7.70;;;2.80;;
22441;SDS011;11388;54.456;9.752;2023-05-07T21:17:40;7.07;;;2.50;;
22441;SDS011;11388;54.456;9.752;2023-05-07T21:20:06;7.93;;;2.70;;
22441;SDS011;11388;54.456;9.752;2023-05-07T21:22:32;4.65;;;2.70;;
22441;SDS011;11388;54.456;9.752;2023-05-07T21:24:59;6.78;;;2.75;;
22441;SDS011;11388;54.456;9.752;2023-05-07T21:27:26;4.97;;;2.33;;
22441;SDS011;11388;54.456;9.752;2023-05-07T21:29:52;4.47;;;2.45;;
22441;SDS011;11388;54.456;9.752;2023-05-07T21:32:18;4.32;;;2.40;;
22441;SDS011;11388;54.456;9.752;2023-05-07T21:34:47;5.72;;;2.70;;
22441;SDS011;11388;54.456;9.752;2023-05-07T21:37:13;5.28;;;2.22;;
22441;SDS011;11388;54.456;9.752;2023-05-07T21:39:39;5.55;;;2.50;;
22441;SDS011;11388;54.456;9.752;2023-05-07T21:42:05;5.85;;;2.55;;
22441;SDS011;11388;54.456;9.752;2023-05-07T21:44:30;4.82;;;2.45;;
22441;SDS011;11388;54.456;9.752;2023-05-07T21:46:56;5.65;;;2.30;;
22441;SDS011;11388;54.456;9.752;2023-05-07T21:49:22;5.43;;;2.40;;
22441;SDS011;11388;54.456;9.752;2023-05-07T21:51:47;7.22;;;2.63;;
22441;SDS011;11388;54.456;9.752;2023-05-07T21:54:13;4.55;;;2.50;;
22441;SDS011;11388;54.456;9.752;2023-05-07T21:56:39;4.55;;;2.38;;
22441;SDS011;11388;54.456;9.752;2023-05-07T21:59:05;4.38;;;2.28;;
22441;SDS011;11388;54.456;9.752;2023-05-07T22:01:31;5.40;;;2.15;;
22441;SDS011;11388;54.456;9.752;2023-05-07T22:03:56;5.20;;;2.47;;
22441;SDS011;11388;54.456;9.752;2023-05-07T22:06:22;4.95;;;2.47;;
22441;SDS011;11388;54.456;9.752;2023-05-07T22:08:49;6.15;;;2.60;;
22441;SDS011;11388;54.456;9.752;2023-05-07T22:11:15;5.60;;;2.40;;
22441;SDS011;11388;54.456;9.752;2023-05-07T22:13:41;5.13;;;2.15;;
22441;SDS011;11388;54.456;9.752;2023-05-07T22:16:07;4.90;;;2.33;;
22441;SDS011;11388;54.456;9.752;2023-05-07T22:18:32;4.22;;;2.40;;
22441;SDS011;11388;54.456;9.752;2023-05-07T22:20:58;5.72;;;2.38;;
22441;SDS011;11388;54.456;9.752;2023-05-07T22:23:24;3.38;;;2.33;;
22441;SDS011;11388;54.456;9.752;2023-05-07T22:25:49;4.53;;;2.40;;
22441;SDS011;11388;54.456;9.752;2023-05-07T22:28:15;5.65;;;2.42;;
22441;SDS011;11388;54.456;9.752;2023-05-07T22:30:41;3.60;;;2.10;;
22441;SDS011;11388;54.456;9.752;2023-05-07T22:33:06;4.95;;;2.20;;
22441;SDS011;11388;54.456;9.752;2023-05-07T22:35:32;5.03;;;2.47;;
22441;SDS011;11388;54.456;9.752;2023-05-07T22:37:58;3.20;;;2.20;;
22441;SDS011;11388;54.456;9.752;2023-05-07T22:40:24;4.40;;;2.63;;
22441;SDS011;11388;54.456;9.752;2023-05-07T22:42:49;6.78;;;2.70;;
22441;SDS011;11388;54.456;9.752;2023-05-07T22:45:15;3.55;;;2.30;;
22441;SDS011;11388;54.456;9.752;2023-05-07T22:47:40;5.00;;;2.13;;
22441;SDS011;11388;54.456;9.752;2023-05-07T22:50:06;4.95;;;2.40;;
22441;SDS011;11388;54.456;9.752;2023-05-07T22:52:32;5.45;;;2.10;;
22441;SDS011;11388;54.456;9.752;2023-05-07T22:54:58;3.10;;;2.10;;
22441;SDS011;11388;54.456;9.752;2023-05-07T22:57:24;4.70;;;2.30;;
22441;SDS011;11388;54.456;9.752;2023-05-07T22:59:56;3.63;;;2.60;;
22441;SDS011;11388;54.456;9.752;2023-05-07T23:02:22;2.80;;;2.00;;
22441;SDS011;11388;54.456;9.752;2023-05-07T23:04:51;5.13;;;2.20;;
22441;SDS011;11388;54.456;9.752;2023-05-07T23:07:16;4.78;;;2.47;;
22441;SDS011;11388;54.456;9.752;2023-05-07T23:09:42;5.63;;;2.38;;
22441;SDS011;11388;54.456;9.752;2023-05-07T23:12:08;2.90;;;2.28;;
22441;SDS011;11388;54.456;9.752;2023-05-07T23:14:33;3.65;;;2.13;;
22441;SDS011;11388;54.456;9.752;2023-05-07T23:16:59;4.97;;;2.60;;
22441;SDS011;11388;54.456;9.752;2023-05-07T23:19:24;4.40;;;2.47;;
22441;SDS011;11388;54.456;9.752;2023-05-07T23:21:50;3.85;;;2.50;;
22441;SDS011;11388;54.456;9.752;2023-05-07T23:24:16;5.45;;;2.38;;
22441;SDS011;11388;54.456;9.752;2023-05-07T23:26:41;5.28;;;2.53;;
22441;SDS011;11388;54.456;9.752;2023-05-07T23:29:07;5.05;;;2.75;;
22441;SDS011;11388;54.456;9.752;2023-05-07T23:31:33;4.93;;;2.67;;
22441;SDS011;11388;54.456;9.752;2023-05-07T23:33:58;3.72;;;2.30;;
22441;SDS011;11388;54.456;9.752;2023-05-07T23:36:24;5.55;;;2.40;;
22441;SDS011;11388;54.456;9.752;2023-05-07T23:38:50;4.50;;;2.50;;
22441;SDS011;11388;54.456;9.752;2023-05-07T23:41:15;7.38;;;2.50;;
22441;SDS011;11388;54.456;9.752;2023-05-07T23:43:43;6.47;;;2.33;;
22441;SDS011;11388;54.456;9.752;2023-05-07T23:46:09;3.53;;;2.25;;
22441;SDS011;11388;54.456;9.752;2023-05-07T23:48:35;4.70;;;2.50;;
22441;SDS011;11388;54.456;9.752;2023-05-07T23:51:00;4.70;;;2.63;;
22441;SDS011;11388;54.456;9.752;2023-05-07T23:53:26;3.67;;;2.38;;
22441;SDS011;11388;54.456;9.752;2023-05-07T23:55:52;4.88;;;2.60;;
22441;SDS011;11388;54.456;9.752;2023-05-07T23:58:17;6.82;;;2.70;;
